METAR Data
IDs: Format: Raw Decoded Include TAF

Data at: 1103 UTC 26 Sep 2018

KPPF 261052Z AUTO 03004KT 10SM CLR 12/11 A3023 RMK AO2 SLP232 T01170106
KPPF 260952Z AUTO 03004KT 10SM CLR 12/11 A3021 RMK AO2 SLP223 T01220106
KPPF 260852Z AUTO 01006KT 10SM CLR 13/11 A3020 RMK AO2 SLP220 T01280111 50008
KPPF 260752Z AUTO 01005KT 10SM CLR 13/12 A3020 RMK AO2 SLP220 T01330117
KPPF 260652Z AUTO 02005KT 10SM CLR 15/12 A3019 RMK AO2 SLP217 T01500122
KPPF 260552Z AUTO 02006KT 10SM CLR 16/13 A3018 RMK AO2 SLP212 60004 T01560128 10200 20156 403110156 51022
KPPF 260452Z AUTO 02008KT 10SM BKN075 OVC090 17/13 A3016 RMK AO2 SLP206 T01670133
KPPF 260352Z AUTO 02006KT 10SM BKN060 OVC075 16/14 A3014 RMK AO2 RAE01 SLP199 P0000 T01610139
KPPF 260307Z AUTO 02007KT 10SM FEW023 BKN050 OVC065 16/14 A3012 RMK AO2 RAE01 P0000 T01610139
KPPF 260252Z AUTO 01007G19KT 9SM VCTS -RA FEW024 BKN050 OVC065 16/14 A3011 RMK AO2 PK WND 02026/0203 RAB41 SLP191 P0004 60004 T01610139 51045
KPPF 260152Z AUTO 36012G19KT 10SM OVC042 18/14 A3008 RMK AO2 SLP180 T01780144
KPPF 260052Z AUTO 36008G18KT 10SM FEW041 BKN065 BKN090 18/16 A3003 RMK AO2 SLP162 T01830156
KPPF 252352Z AUTO 36015G22KT 10SM OVC065 20/17 A2998 RMK AO2 PK WND 36027/2333 RAE19 SLP143 P0002 60014 T02000172 10311 20200 53027
KPPF 252315Z AUTO 01012G19KT 10SM -RA FEW017 BKN055 OVC075 22/20 A2996 RMK AO2 LTG DSNT NE AND E P0002 T02170200
KPPF 252300Z AUTO 35008KT 6SM VCTS RA BR SCT045 BKN060 OVC075 22/21 A2995 RMK AO2 LTG DSNT E P0002 T02220206
KPPF 252252Z AUTO 01008G17KT 4SM +RA BR BKN045 BKN055 OVC070 21/20 A2995 RMK AO2 PK WND 34028/2228 WSHFT 2219 RAB25 TSB30E47 SLP133 P0012 T02110200
KPPF 252233Z AUTO 35018G28KT 8SM TSRA BKN055 BKN075 22/20 A2993 RMK AO2 PK WND 34028/2228 WSHFT 2219 LTG DSNT NE RAB25 TSB30 PRESRR P0002 T02220200
KPPF 252214Z AUTO 00000KT 10SM VCTS SCT065 SCT080 27/21 A2988 RMK AO2 T02720211
KPPF 252152Z AUTO VRB03KT 10SM BKN060 BKN075 31/18 A2989 RMK AO2 SLP109 T03060183
KPPF 252052Z AUTO 19004KT 10SM FEW050 FEW065 SCT080 31/19 A2989 RMK AO2 SLP112 T03060189 56015
KPPF 251952Z AUTO 22009KT 10SM FEW043 31/19 A2991 RMK AO2 SLP116 T03060189
KPPF 251852Z AUTO VRB06KT 10SM CLR 29/20 A2991 RMK AO2 SLP119 T02940200
KPPF 251752Z AUTO 23008KT 10SM FEW026 BKN033 27/20 A2994 RMK AO2 SLP129 T02720200 10278 20211 53001
KPPF 251741Z AUTO 25007KT 10SM BKN029 BKN035 BKN042 27/20 A2994 RMK AO2 T02720200
KPPF 251700Z AUTO 21008G17KT 10SM SCT026 BKN031 27/21 A2994 RMK AO2 T02720206
KPPF 251652Z AUTO 20008G15KT 10SM BKN026 26/20 A2994 RMK AO2 SLP128 T02610200
KPPF 251600Z AUTO 19007KT 10SM FEW014 SCT020 25/21 A2993 RMK AO2 T02500206
KPPF 251552Z AUTO 21008KT 10SM FEW014 BKN020 24/21 A2994 RMK AO2 SLP128 T02390206
KPPF 251530Z AUTO 21008KT 10SM FEW009 BKN015 OVC022 23/21 A2993 RMK AO2 T02280206
KPPF 251528Z AUTO 22008KT 10SM BKN013 OVC022 23/21 A2993 RMK AO2 T02330206
KPPF 251520Z AUTO 20005KT 10SM SCT011 BKN018 OVC023 23/21 A2994 RMK AO2 T02280206
KPPF 251502Z AUTO 20006KT 10SM BKN010 OVC020 23/21 A2993 RMK AO2 T02280211
KPPF 251452Z AUTO 19006KT 10SM SCT012 OVC020 22/21 A2993 RMK AO2 SLP127 T02220206 50001
KPPF 251433Z AUTO 20007KT 10SM SCT009 OVC015 22/21 A2994 RMK AO2 T02170206
KPPF 251424Z AUTO 20009KT 10SM BKN009 OVC014 22/21 A2994 RMK AO2 CIG 007V013 T02170206
KPPF 251352Z AUTO 20009KT 10SM OVC013 21/20 A2994 RMK AO2 SLP131 T02110200
KPPF 251343Z AUTO 21010G17KT 10SM SCT008 OVC013 21/21 A2994 RMK AO2 T02110206
KPPF 251252Z AUTO 19008KT 10SM OVC006 21/21 A2994 RMK AO2 CIG 005V010 SLP130 T02110206
KPPF 251226Z AUTO 19006KT 10SM OVC005 21/21 A2993 RMK AO2 T02110206
KPPF 251152Z AUTO 19004KT 7SM OVC004 21/21 A2993 RMK AO2 SLP126 T02110211 10211 20194 53004
KPPF 251052Z AUTO 18003KT 5SM BR OVC002 21/21 A2992 RMK AO2 SLP123 T02110211
KPPF 251000Z AUTO 18005KT 4SM BR OVC002 21/21 A2991 RMK AO2 T02060206
KPPF 250952Z AUTO 19003KT 2 1/2SM BR OVC002 21/21 A2991 RMK AO2 SLP120 T02060206
KPPF 250947Z AUTO 00000KT 2 1/2SM BR OVC002 21/21 A2992 RMK AO2
KPPF 250937Z AUTO 19003KT 1 1/2SM BR OVC002 21/21 A2991 RMK AO2 T02060206
KPPF 250933Z AUTO 19003KT 1SM BR VV002 21/21 A2991 RMK AO2 T02060206
KPPF 250917Z AUTO 19004KT 3/4SM BR VV002 21/21 A2991 RMK AO2 T02110211
KPPF 250904Z AUTO 19004KT 1SM BR OVC002 21/21 A2991 RMK AO2 T02110211
KPPF 250859Z AUTO 20004KT 1 3/4SM BR OVC003 21/21 A2991 RMK AO2 T02110211
KPPF 250852Z AUTO 19006KT 4SM BR OVC003 21/21 A2991 RMK AO2 SLP118 T02110211 55000
KPPF 250823Z AUTO VRB03KT 8SM OVC004 21/21 A2991 RMK AO2 T02060206
KPPF 250814Z AUTO 15003KT 8SM BKN005 21/20 A2990 RMK AO2 T02060200
KPPF 250805Z AUTO 00000KT 8SM SCT005 21/20 A2990 RMK AO2 T02060200
KPPF 250752Z AUTO 16003KT 9SM CLR 21/20 A2990 RMK AO2 SLP116 T02060200
KPPF 250652Z AUTO 00000KT 9SM CLR 19/19 A2990 RMK AO2 SLP117 T01940194
KPPF 250552Z AUTO 00000KT 10SM BKN060 20/19 A2991 RMK AO2 SLP119 T02000194 10244 20194 402720161 51008
KPPF 250452Z AUTO 17003KT 10SM FEW060 21/20 A2990 RMK AO2 SLP117 T02110200
KPPF 250352Z AUTO 00000KT 10SM CLR 21/19 A2990 RMK AO2 SLP117 T02110194
KPPF 250252Z AUTO 16003KT 10SM CLR 22/19 A2989 RMK AO2 SLP112 T02170194 53011
KPPF 250152Z AUTO 12003KT 10SM FEW049 OVC060 22/20 A2987 RMK AO2 SLP109 T02170200
KPPF 250052Z AUTO 00000KT 10SM FEW049 22/20 A2985 RMK AO2 SLP102 T02170200
KPPF 242352Z AUTO 00000KT 10SM CLR 24/20 A2985 RMK AO2 SLP100 T02440200 10272 20239 55002